createdAt,value
2023-02-27T00:01:08.649Z,19.60
2023-02-27T00:03:35.159Z,19.60
2023-02-27T00:06:01.692Z,19.60
2023-02-27T00:08:28.233Z,19.60
2023-02-27T00:10:54.747Z,19.70
2023-02-27T00:13:21.206Z,19.70
2023-02-27T00:15:47.738Z,19.60
2023-02-27T00:18:14.295Z,19.60
2023-02-27T00:20:40.875Z,19.60
2023-02-27T00:23:07.388Z,19.60
2023-02-27T00:25:33.888Z,19.60
2023-02-27T00:28:00.374Z,19.50
2023-02-27T00:30:26.896Z,19.50
2023-02-27T00:32:53.430Z,19.10
2023-02-27T00:35:19.979Z,19.50
2023-02-27T00:37:46.535Z,19.50
2023-02-27T00:40:13.058Z,19.50
2023-02-27T00:42:39.527Z,19.50
2023-02-27T00:45:06.080Z,19.50
2023-02-27T00:47:32.573Z,19.50
2023-02-27T00:49:59.070Z,19.50
2023-02-27T00:52:25.574Z,19.50
2023-02-27T00:54:52.074Z,19.50
2023-02-27T00:57:18.638Z,19.50
2023-02-27T00:59:45.162Z,19.50
2023-02-27T01:02:11.706Z,19.50
2023-02-27T01:04:38.246Z,19.50
2023-02-27T01:07:04.763Z,19.50
2023-02-27T01:09:31.304Z,19.50
2023-02-27T01:11:57.818Z,19.50
2023-02-27T01:14:24.340Z,19.50
2023-02-27T01:16:50.828Z,19.60
2023-02-27T01:19:17.305Z,19.60
2023-02-27T01:21:43.812Z,19.60
2023-02-27T01:24:10.320Z,19.60
2023-02-27T01:26:36.819Z,19.60
2023-02-27T01:29:05.316Z,19.60
2023-02-27T01:31:32.838Z,19.60
2023-02-27T01:33:59.337Z,19.60
2023-02-27T01:36:25.827Z,19.60
2023-02-27T01:38:52.335Z,19.60
2023-02-27T01:41:18.828Z,19.60
2023-02-27T01:43:45.485Z,19.60
2023-02-27T01:46:12.018Z,19.60
2023-02-27T01:48:38.515Z,19.60
2023-02-27T01:51:04.979Z,19.60
2023-02-27T01:53:31.493Z,19.60
2023-02-27T01:55:57.971Z,19.60
2023-02-27T01:58:24.454Z,19.60
2023-02-27T02:00:50.942Z,19.60
2023-02-27T02:03:17.450Z,19.60
2023-02-27T02:05:43.916Z,19.60
2023-02-27T02:08:10.458Z,19.60
2023-02-27T02:10:36.956Z,19.50
2023-02-27T02:13:03.459Z,19.60
2023-02-27T02:15:29.934Z,19.60
2023-02-27T02:17:56.454Z,19.60
2023-02-27T02:20:22.990Z,19.50
2023-02-27T02:22:49.481Z,19.90
2023-02-27T02:25:16.058Z,19.60
2023-02-27T02:27:42.571Z,19.60
2023-02-27T02:30:09.072Z,19.60
2023-02-27T02:32:35.563Z,19.60
2023-02-27T02:35:02.091Z,19.60
2023-02-27T02:37:28.554Z,19.60
2023-02-27T02:39:55.050Z,19.60
2023-02-27T02:42:21.577Z,19.60
2023-02-27T02:44:48.055Z,19.60
2023-02-27T02:47:14.518Z,19.60
2023-02-27T02:49:41.037Z,19.60
2023-02-27T02:52:07.504Z,19.60
2023-02-27T02:54:33.997Z,19.60
2023-02-27T02:57:00.480Z,19.50
2023-02-27T02:59:26.976Z,19.60
2023-02-27T03:01:53.510Z,19.60
2023-02-27T03:04:20.059Z,19.60
2023-02-27T03:06:46.568Z,19.50
2023-02-27T03:09:13.091Z,19.60
2023-02-27T03:11:39.604Z,19.60
2023-02-27T03:14:06.064Z,19.60
2023-02-27T03:16:32.563Z,19.60
2023-02-27T03:18:59.114Z,19.60
2023-02-27T03:21:26.007Z,19.50
2023-02-27T03:23:52.923Z,19.60
2023-02-27T03:26:19.428Z,19.60
2023-02-27T03:28:45.934Z,19.60
2023-02-27T03:31:12.501Z,19.60
2023-02-27T03:33:39.073Z,19.60
2023-02-27T03:36:05.571Z,19.60
2023-02-27T03:38:32.075Z,19.50
2023-02-27T03:40:58.565Z,19.60
2023-02-27T03:43:25.063Z,19.60
2023-02-27T03:45:51.564Z,19.60
2023-02-27T03:48:18.043Z,19.60
2023-02-27T03:50:44.546Z,19.60
2023-02-27T03:53:11.078Z,19.60
2023-02-27T03:55:37.575Z,19.50
2023-02-27T03:58:04.069Z,19.60
2023-02-27T04:00:30.563Z,19.60
2023-02-27T04:02:57.084Z,19.60
2023-02-27T04:05:23.606Z,19.60
2023-02-27T04:07:50.078Z,19.60
2023-02-27T04:10:16.612Z,19.60
2023-02-27T04:12:45.771Z,19.20
2023-02-27T04:15:12.469Z,19.60
2023-02-27T04:17:38.986Z,19.60
2023-02-27T04:20:05.474Z,19.60
2023-02-27T04:22:31.957Z,19.60
2023-02-27T04:24:58.451Z,19.60
2023-02-27T04:27:25.290Z,19.50
2023-02-27T04:29:51.813Z,19.60
2023-02-27T04:32:18.372Z,19.60
2023-02-27T04:34:44.907Z,19.60
2023-02-27T04:37:11.408Z,19.60
2023-02-27T04:39:37.906Z,19.60
2023-02-27T04:42:04.417Z,19.60
2023-02-27T04:44:30.929Z,19.60
2023-02-27T04:46:57.440Z,19.60
2023-02-27T04:49:23.943Z,19.60
2023-02-27T04:51:50.405Z,19.60
2023-02-27T04:54:16.918Z,19.50
2023-02-27T04:56:43.435Z,19.60
2023-02-27T04:59:09.891Z,19.50
2023-02-27T05:01:36.463Z,19.50
2023-02-27T05:04:02.972Z,19.50
2023-02-27T05:06:29.476Z,19.50
2023-02-27T05:08:55.977Z,19.50
2023-02-27T05:11:22.478Z,19.50
2023-02-27T05:13:49.006Z,19.50
2023-02-27T05:16:15.542Z,19.50
2023-02-27T05:18:42.054Z,19.50
2023-02-27T05:21:08.546Z,19.40
2023-02-27T05:23:35.078Z,19.50
2023-02-27T05:26:01.536Z,19.50
2023-02-27T05:28:28.019Z,19.50
2023-02-27T05:30:54.513Z,19.50
2023-02-27T05:33:21.003Z,19.50
2023-02-27T05:35:47.491Z,19.50
2023-02-27T05:38:14.004Z,19.50
2023-02-27T05:40:40.477Z,19.50
2023-02-27T05:43:06.944Z,19.50
2023-02-27T05:45:33.452Z,19.50
2023-02-27T05:47:59.949Z,19.50
2023-02-27T05:50:26.437Z,19.60
2023-02-27T05:52:52.940Z,19.50
2023-02-27T05:55:19.456Z,19.60
2023-02-27T05:57:45.925Z,19.60
2023-02-27T06:00:12.404Z,19.50
2023-02-27T06:02:38.906Z,18.80
2023-02-27T06:05:05.452Z,19.50
2023-02-27T06:07:31.935Z,19.60
2023-02-27T06:09:58.410Z,19.60
2023-02-27T06:12:24.988Z,19.60
2023-02-27T06:14:51.489Z,19.60
2023-02-27T06:17:18.029Z,19.60
2023-02-27T06:19:44.505Z,19.60
2023-02-27T06:22:10.994Z,19.50
2023-02-27T06:24:37.469Z,19.50
2023-02-27T06:27:03.958Z,19.50
2023-02-27T06:29:30.429Z,19.50
2023-02-27T06:31:56.989Z,19.50
2023-02-27T06:34:23.463Z,19.40
2023-02-27T06:36:49.955Z,19.40
2023-02-27T06:39:16.424Z,19.40
2023-02-27T06:41:42.940Z,19.40
2023-02-27T06:44:09.462Z,19.30
2023-02-27T06:46:35.968Z,19.40
2023-02-27T06:49:02.473Z,19.40
2023-02-27T06:51:28.941Z,19.40
2023-02-27T06:53:55.492Z,19.50
2023-02-27T06:56:22.042Z,19.50
2023-02-27T06:58:48.711Z,19.50
2023-02-27T07:01:15.463Z,19.60
2023-02-27T07:03:41.969Z,19.60
2023-02-27T07:06:08.481Z,19.70
2023-02-27T07:08:34.993Z,19.70
2023-02-27T07:11:01.460Z,19.80
2023-02-27T07:13:27.979Z,19.90
2023-02-27T07:15:54.540Z,19.90
2023-02-27T07:18:21.131Z,20.00
2023-02-27T07:20:47.709Z,20.00
2023-02-27T07:23:14.230Z,20.10
2023-02-27T07:25:40.713Z,20.10
2023-02-27T07:28:07.227Z,20.10
2023-02-27T07:30:33.844Z,20.10
2023-02-27T07:33:00.326Z,20.10
2023-02-27T07:35:26.883Z,20.20
2023-02-27T07:37:53.414Z,20.20
2023-02-27T07:40:19.914Z,20.20
2023-02-27T07:42:46.377Z,19.60
2023-02-27T07:45:12.877Z,20.20
2023-02-27T07:47:39.339Z,20.30
2023-02-27T07:50:05.825Z,20.20
2023-02-27T07:52:32.342Z,20.30
2023-02-27T07:54:58.860Z,20.30
2023-02-27T07:57:25.351Z,20.40
2023-02-27T07:59:51.834Z,20.40
2023-02-27T08:02:18.332Z,20.40
2023-02-27T08:04:44.863Z,20.50
2023-02-27T08:07:11.371Z,20.50
2023-02-27T08:09:37.844Z,20.50
2023-02-27T08:12:04.375Z,20.50
2023-02-27T08:14:30.900Z,20.50
2023-02-27T08:16:57.375Z,20.50
2023-02-27T08:19:23.919Z,20.50
2023-02-27T08:21:50.393Z,20.50
2023-02-27T08:24:16.881Z,20.50
2023-02-27T08:26:43.349Z,20.60
2023-02-27T08:29:09.839Z,20.50
2023-02-27T08:31:36.384Z,20.60
2023-02-27T08:34:10.306Z,20.60
2023-02-27T08:36:37.291Z,20.60
2023-02-27T08:39:03.782Z,20.60
2023-02-27T08:41:30.250Z,20.60
2023-02-27T08:43:56.780Z,20.60
2023-02-27T08:46:23.257Z,20.60
2023-02-27T08:48:49.776Z,20.60
2023-02-27T08:51:16.304Z,20.50
2023-02-27T08:53:42.779Z,20.60
2023-02-27T08:56:09.303Z,20.70
2023-02-27T08:58:35.769Z,20.70
2023-02-27T09:01:02.375Z,20.70
2023-02-27T09:03:29.005Z,20.60
2023-02-27T09:05:55.518Z,20.60
2023-02-27T09:08:21.980Z,19.50
2023-02-27T09:10:48.510Z,20.60
2023-02-27T09:13:15.048Z,20.60
2023-02-27T09:15:41.564Z,20.60
2023-02-27T09:18:08.132Z,20.60
2023-02-27T09:20:34.649Z,20.60
2023-02-27T09:23:01.136Z,20.60
2023-02-27T09:25:27.600Z,20.60
2023-02-27T09:27:54.099Z,21.90
2023-02-27T09:30:20.592Z,20.60
2023-02-27T09:32:47.161Z,18.40
2023-02-27T09:35:13.686Z,20.60
2023-02-27T09:37:40.216Z,20.70
2023-02-27T09:40:06.742Z,20.70
2023-02-27T09:42:33.251Z,20.70
2023-02-27T09:44:59.750Z,20.70
2023-02-27T09:47:26.299Z,21.80
2023-02-27T09:49:52.876Z,20.70
2023-02-27T09:52:19.377Z,20.80
2023-02-27T09:54:45.858Z,20.70
2023-02-27T09:57:12.368Z,20.70
2023-02-27T09:59:38.836Z,20.80
2023-02-27T10:02:05.367Z,20.80
2023-02-27T10:04:31.866Z,20.80
2023-02-27T10:06:58.367Z,20.80
2023-02-27T10:09:24.908Z,20.80
2023-02-27T10:11:51.420Z,20.80
2023-02-27T10:14:17.926Z,20.90
2023-02-27T10:16:44.427Z,20.80
2023-02-27T10:19:10.964Z,20.80
2023-02-27T10:21:37.475Z,20.90
2023-02-27T10:24:06.009Z,20.80
2023-02-27T10:26:33.883Z,20.80
2023-02-27T10:29:00.405Z,20.90
2023-02-27T10:31:27.262Z,20.80
2023-02-27T10:33:54.041Z,20.80
2023-02-27T10:36:32.994Z,20.80
2023-02-27T10:39:00.321Z,20.60
2023-02-27T10:41:27.126Z,20.80
2023-02-27T10:43:53.867Z,20.80
2023-02-27T10:46:20.487Z,20.80
2023-02-27T10:48:46.982Z,20.80
2023-02-27T10:51:13.499Z,20.80
2023-02-27T10:53:39.974Z,20.80
2023-02-27T10:56:06.458Z,20.70
2023-02-27T10:58:34.658Z,20.60
2023-02-27T11:01:01.290Z,20.60
2023-02-27T11:03:27.778Z,20.60
2023-02-27T11:05:54.300Z,20.50
2023-02-27T11:08:20.854Z,20.60
2023-02-27T11:10:47.384Z,20.50
2023-02-27T11:13:13.917Z,20.50
2023-02-27T11:15:40.456Z,20.40
2023-02-27T11:18:06.970Z,20.40
2023-02-27T11:20:33.470Z,20.40
2023-02-27T11:23:00.042Z,20.50
2023-02-27T11:25:26.534Z,20.50
2023-02-27T11:27:53.047Z,20.50
2023-02-27T11:30:19.536Z,20.40
2023-02-27T11:32:46.117Z,20.00
2023-02-27T11:35:12.592Z,20.30
2023-02-27T11:37:39.125Z,20.20
2023-02-27T11:40:05.597Z,20.20
2023-02-27T11:42:32.080Z,20.20
2023-02-27T11:44:58.565Z,20.20
2023-02-27T11:47:25.079Z,20.10
2023-02-27T11:49:51.593Z,20.10
2023-02-27T11:52:18.084Z,20.10
2023-02-27T11:54:44.588Z,20.10
2023-02-27T11:57:11.055Z,20.00
2023-02-27T11:59:37.515Z,20.00
2023-02-27T12:02:03.987Z,20.00
2023-02-27T12:04:30.529Z,20.00
2023-02-27T12:06:57.084Z,20.00
2023-02-27T12:09:23.611Z,20.00
2023-02-27T12:11:50.121Z,20.00
2023-02-27T12:14:16.762Z,20.00
2023-02-27T12:16:43.337Z,19.90
2023-02-27T12:19:09.876Z,19.90
2023-02-27T12:21:36.402Z,19.90
2023-02-27T12:24:02.955Z,19.90
2023-02-27T12:26:29.812Z,19.90
2023-02-27T12:28:56.556Z,19.90
2023-02-27T12:31:23.059Z,19.90
2023-02-27T12:33:49.815Z,19.90
2023-02-27T12:36:16.326Z,19.90
2023-02-27T12:38:42.847Z,19.90
2023-02-27T12:41:09.393Z,19.90
2023-02-27T12:43:35.909Z,19.90
2023-02-27T12:46:02.499Z,19.90
2023-02-27T12:48:28.995Z,19.70
2023-02-27T12:50:55.521Z,19.90
2023-02-27T12:53:22.024Z,19.80
2023-02-27T12:55:48.525Z,19.80
2023-02-27T12:58:15.029Z,19.80
2023-02-27T13:00:41.573Z,19.80
2023-02-27T13:03:08.130Z,19.90
2023-02-27T13:05:34.645Z,19.80
2023-02-27T13:08:01.161Z,19.80
2023-02-27T13:10:27.642Z,19.80
2023-02-27T13:12:54.170Z,20.50
2023-02-27T13:15:20.785Z,19.80
2023-02-27T13:17:47.292Z,19.80
2023-02-27T13:20:13.755Z,19.80
2023-02-27T13:22:40.216Z,19.80
2023-02-27T13:25:06.680Z,19.80
2023-02-27T13:27:33.179Z,19.70
2023-02-27T13:29:59.688Z,19.70
2023-02-27T13:32:41.403Z,19.70
2023-02-27T13:35:09.523Z,19.70
2023-02-27T13:37:36.049Z,19.70
2023-02-27T13:40:02.584Z,19.70
2023-02-27T13:42:29.131Z,19.70
2023-02-27T13:44:55.621Z,19.70
2023-02-27T13:47:22.091Z,19.70
2023-02-27T13:49:48.614Z,19.70
2023-02-27T13:52:15.123Z,19.70
2023-02-27T13:54:41.656Z,19.60
2023-02-27T13:57:08.170Z,19.70
2023-02-27T13:59:34.673Z,19.60
2023-02-27T14:02:01.132Z,19.60
2023-02-27T14:04:27.595Z,19.60
2023-02-27T14:06:54.101Z,19.60
2023-02-27T14:09:20.705Z,19.60
2023-02-27T14:11:47.300Z,19.60
2023-02-27T14:14:13.849Z,19.50
2023-02-27T14:16:40.399Z,19.60
2023-02-27T14:19:06.904Z,19.60
2023-02-27T14:21:33.419Z,19.60
2023-02-27T14:23:59.949Z,19.60
2023-02-27T14:26:26.541Z,19.60
2023-02-27T14:28:53.042Z,19.60
2023-02-27T14:31:19.584Z,19.60
2023-02-27T14:33:46.100Z,19.50
2023-02-27T14:36:12.606Z,19.60
2023-02-27T14:38:39.115Z,19.50
2023-02-27T14:41:05.650Z,19.60
2023-02-27T14:43:32.155Z,19.60
2023-02-27T14:45:58.670Z,19.50
2023-02-27T14:48:25.174Z,19.60
2023-02-27T14:50:53.495Z,19.60
2023-02-27T14:53:20.157Z,19.60
2023-02-27T14:55:46.669Z,19.60
2023-02-27T14:58:13.177Z,19.60
2023-02-27T15:00:39.683Z,19.60
2023-02-27T15:03:06.174Z,19.60
2023-02-27T15:05:37.023Z,19.60
2023-02-27T15:08:03.568Z,19.50
2023-02-27T15:10:30.061Z,19.60
2023-02-27T15:12:56.554Z,20.00
2023-02-27T15:15:23.089Z,19.60
2023-02-27T15:17:49.569Z,19.60
2023-02-27T15:20:19.081Z,19.60
2023-02-27T15:22:45.579Z,19.80
2023-02-27T15:25:12.056Z,19.60
2023-02-27T15:27:38.555Z,19.60
2023-02-27T15:30:05.102Z,19.50
2023-02-27T15:32:31.686Z,19.60
2023-02-27T15:34:58.195Z,19.60
2023-02-27T15:37:24.700Z,19.60
2023-02-27T15:39:51.274Z,19.60
2023-02-27T15:42:17.816Z,19.50
2023-02-27T15:44:44.286Z,19.50
2023-02-27T15:47:10.761Z,19.60
2023-02-27T15:49:37.223Z,19.50
2023-02-27T15:52:03.729Z,19.50
2023-02-27T15:54:30.224Z,19.60
2023-02-27T15:56:56.718Z,19.50
2023-02-27T15:59:23.204Z,19.60
2023-02-27T16:01:49.780Z,19.50
2023-02-27T16:04:16.303Z,19.50
2023-02-27T16:06:42.863Z,19.50
2023-02-27T16:09:09.395Z,19.50
2023-02-27T16:11:35.944Z,19.50
2023-02-27T16:14:02.414Z,19.60
2023-02-27T16:16:29.208Z,19.50
2023-02-27T16:18:55.949Z,19.50
2023-02-27T16:21:22.445Z,19.50
2023-02-27T16:23:48.911Z,19.50
2023-02-27T16:26:15.451Z,19.50
2023-02-27T16:28:41.966Z,19.50
2023-02-27T16:31:08.521Z,19.50
2023-02-27T16:33:35.104Z,19.40
2023-02-27T16:36:01.662Z,19.40
2023-02-27T16:38:28.284Z,19.40
2023-02-27T16:40:54.842Z,19.40
2023-02-27T16:43:21.406Z,19.40
2023-02-27T16:45:47.997Z,19.50
2023-02-27T16:48:14.546Z,19.50
2023-02-27T16:50:41.073Z,19.50
2023-02-27T16:53:07.607Z,19.50
2023-02-27T16:55:34.079Z,19.50
2023-02-27T16:58:00.603Z,19.50
2023-02-27T17:00:27.139Z,19.60
2023-02-27T17:02:53.611Z,19.80
2023-02-27T17:05:20.319Z,19.70
2023-02-27T17:07:46.872Z,19.70
2023-02-27T17:10:13.346Z,19.80
2023-02-27T17:12:39.834Z,19.80
2023-02-27T17:15:06.293Z,19.80
2023-02-27T17:17:32.790Z,19.80
2023-02-27T17:19:59.358Z,19.80
2023-02-27T17:22:25.930Z,19.80
2023-02-27T17:24:52.436Z,19.80
2023-02-27T17:27:18.925Z,19.70
2023-02-27T17:29:45.436Z,19.80
2023-02-27T17:32:12.027Z,19.80
2023-02-27T17:34:38.564Z,19.80
2023-02-27T17:37:05.068Z,19.80
2023-02-27T17:39:31.638Z,19.80
2023-02-27T17:41:58.107Z,19.80
2023-02-27T17:44:24.608Z,19.80
2023-02-27T17:46:51.092Z,19.70
2023-02-27T17:49:17.636Z,19.80
2023-02-27T17:51:44.112Z,19.80
2023-02-27T17:54:10.634Z,19.80
2023-02-27T17:56:37.285Z,19.80
2023-02-27T17:59:03.800Z,19.80
2023-02-27T18:01:30.324Z,19.80
2023-02-27T18:03:56.870Z,19.80
2023-02-27T18:06:23.380Z,19.70
2023-02-27T18:08:49.890Z,19.70
2023-02-27T18:11:16.356Z,19.80
2023-02-27T18:13:42.888Z,19.70
2023-02-27T18:16:09.441Z,19.70
2023-02-27T18:18:36.029Z,19.70
2023-02-27T18:21:02.620Z,19.70
2023-02-27T18:23:29.193Z,19.70
2023-02-27T18:25:55.841Z,19.70
2023-02-27T18:28:22.324Z,19.70
2023-02-27T18:30:48.956Z,19.70
2023-02-27T18:33:15.496Z,19.70
2023-02-27T18:35:42.060Z,19.70
2023-02-27T18:38:08.546Z,19.70
2023-02-27T18:40:35.071Z,19.70
2023-02-27T18:43:01.587Z,19.70
2023-02-27T18:45:28.241Z,19.70
2023-02-27T18:47:54.711Z,19.70
2023-02-27T18:50:21.214Z,19.70
2023-02-27T18:52:47.754Z,20.50
2023-02-27T18:55:14.269Z,19.70
2023-02-27T18:57:40.781Z,19.70
2023-02-27T19:00:07.252Z,19.70
2023-02-27T19:02:33.767Z,19.70
2023-02-27T19:05:00.276Z,19.70
2023-02-27T19:07:26.810Z,19.70
2023-02-27T19:09:53.277Z,19.70
2023-02-27T19:12:19.748Z,19.70
2023-02-27T19:14:46.203Z,19.70
2023-02-27T19:17:12.696Z,19.70
2023-02-27T19:19:39.187Z,19.70
2023-02-27T19:22:05.689Z,19.50
2023-02-27T19:24:32.217Z,19.70
2023-02-27T19:26:58.747Z,19.60
2023-02-27T19:29:25.219Z,19.60
2023-02-27T19:31:51.782Z,19.60
2023-02-27T19:34:18.286Z,19.60
2023-02-27T19:36:44.792Z,19.60
2023-02-27T19:39:11.310Z,19.60
2023-02-27T19:41:37.859Z,19.60
2023-02-27T19:44:04.350Z,19.60
2023-02-27T19:46:31.232Z,19.60
2023-02-27T19:48:58.018Z,19.70
2023-02-27T19:51:24.515Z,19.60
2023-02-27T19:53:50.989Z,19.60
2023-02-27T19:56:18.674Z,19.70
2023-02-27T19:58:45.126Z,19.70
2023-02-27T20:01:11.630Z,19.70
2023-02-27T20:03:38.203Z,19.60
2023-02-27T20:06:04.705Z,19.60
2023-02-27T20:08:31.188Z,19.60
2023-02-27T20:10:57.659Z,19.70
2023-02-27T20:13:24.166Z,19.70
2023-02-27T20:15:50.684Z,19.70
2023-02-27T20:18:17.329Z,19.70
2023-02-27T20:20:43.812Z,19.80
2023-02-27T20:23:10.330Z,19.70
2023-02-27T20:25:36.844Z,19.70
2023-02-27T20:28:03.331Z,19.60
2023-02-27T20:30:29.816Z,19.70
2023-02-27T20:32:56.367Z,19.70
2023-02-27T20:35:22.990Z,19.70
2023-02-27T20:37:49.521Z,19.80
2023-02-27T20:40:16.057Z,19.70
2023-02-27T20:42:42.616Z,20.40
2023-02-27T20:45:09.146Z,19.70
2023-02-27T20:47:35.678Z,19.70
2023-02-27T20:50:02.224Z,19.70
2023-02-27T20:52:28.703Z,19.70
2023-02-27T20:54:55.221Z,19.70
2023-02-27T20:57:21.727Z,19.70
2023-02-27T20:59:48.266Z,19.80
2023-02-27T21:02:14.773Z,19.90
2023-02-27T21:04:41.397Z,19.90
2023-02-27T21:07:07.979Z,19.90
2023-02-27T21:09:34.581Z,20.00
2023-02-27T21:12:01.109Z,19.90
2023-02-27T21:14:27.619Z,20.00
2023-02-27T21:16:54.117Z,19.90
2023-02-27T21:19:20.860Z,19.90
2023-02-27T21:21:47.392Z,19.90
2023-02-27T21:24:13.864Z,19.90
2023-02-27T21:26:40.330Z,19.90
2023-02-27T21:29:06.815Z,19.90
2023-02-27T21:31:33.647Z,19.90
2023-02-27T21:34:00.269Z,19.90
2023-02-27T21:36:26.755Z,19.90
2023-02-27T21:38:53.238Z,19.80
2023-02-27T21:41:19.708Z,19.90
2023-02-27T21:43:46.217Z,19.70
2023-02-27T21:46:12.735Z,19.80
2023-02-27T21:48:39.294Z,19.80
2023-02-27T21:51:05.815Z,19.80
2023-02-27T21:53:32.399Z,19.80
2023-02-27T21:55:58.872Z,19.80
2023-02-27T21:58:25.397Z,19.70
2023-02-27T22:00:51.878Z,19.80
2023-02-27T22:03:18.360Z,19.80
2023-02-27T22:05:44.819Z,19.80
2023-02-27T22:08:11.359Z,19.80
2023-02-27T22:10:37.845Z,19.70
2023-02-27T22:13:04.350Z,19.80
2023-02-27T22:15:30.837Z,19.80
2023-02-27T22:17:57.320Z,19.70
2023-02-27T22:20:23.808Z,19.70
2023-02-27T22:22:50.323Z,19.80
2023-02-27T22:25:16.844Z,19.70
2023-02-27T22:27:43.351Z,19.70
2023-02-27T22:30:09.897Z,19.70
2023-02-27T22:32:36.437Z,19.70
2023-02-27T22:35:03.013Z,19.70
2023-02-27T22:37:29.533Z,19.80
2023-02-27T22:39:56.092Z,19.70
2023-02-27T22:42:22.580Z,19.70
2023-02-27T22:44:49.102Z,19.70
2023-02-27T22:47:15.594Z,19.70
2023-02-27T22:49:42.138Z,19.70
2023-02-27T22:52:08.617Z,19.70
2023-02-27T22:54:35.113Z,19.70
2023-02-27T22:57:01.577Z,19.70
2023-02-27T22:59:28.096Z,19.60
2023-02-27T23:01:54.686Z,19.60
2023-02-27T23:04:21.301Z,19.60
2023-02-27T23:06:47.778Z,19.60
2023-02-27T23:09:14.238Z,19.60
2023-02-27T23:11:40.739Z,19.60
2023-02-27T23:14:07.233Z,19.60
2023-02-27T23:16:33.756Z,19.60
2023-02-27T23:19:00.312Z,19.60
2023-02-27T23:21:27.232Z,19.60
2023-02-27T23:23:53.967Z,19.60
2023-02-27T23:26:20.508Z,19.60
2023-02-27T23:28:47.018Z,19.60
2023-02-27T23:31:13.580Z,19.60
2023-02-27T23:33:40.084Z,19.60
2023-02-27T23:36:06.612Z,19.60
2023-02-27T23:38:33.127Z,19.60
2023-02-27T23:40:59.670Z,19.60
2023-02-27T23:43:26.162Z,19.60
2023-02-27T23:45:52.743Z,19.60
2023-02-27T23:48:19.300Z,19.60
2023-02-27T23:50:45.822Z,19.60
2023-02-27T23:53:12.324Z,19.60
2023-02-27T23:55:38.825Z,19.60
2023-02-27T23:58:05.318Z,19.60
